• Join FlightAware (Why Join?)
  • Login
  • US Flag 
07:59AM EDT


 

Airport Tracker/Info


-or-


 

Live Flight TrackerFlight Track Log ✈ SWA16 ✈ 2013年04月23日 ✈ KDEN - KMHT

Flight Track Log - Related Links

Times and Time Zones

All times are in EDT time to prevent confusion due to time zone crossing. See the SWA16 flight status page for this flight to view local times or setup timezone preferences in your user account.

Time Position Orientation Groundspeed Altitude Reporting Facility
EDT Latitude Longitude Course Direction KTS MPH feet Rate Location/Type
07:37PM 39.8833 -104.5333 90° East 231 266 8,600  Level Denver TRACON
07:38PM 39.8833 -104.4333 90° East 256 295 11,600 2,220 Climbing Denver TRACON
07:39PM 39.8739 -104.3567 99° East 293 337 12,600 2,040 Climbing Denver Center
07:40PM 39.8728 -104.2194 91° East 357 411 15,400 2,640 Climbing Denver Center
07:41PM 39.8725 -104.0819 90° East 379 436 18,100 2,580 Climbing Denver Center
07:42PM 39.8708 -103.9278 91° East 402 463 20,800 2,340 Climbing Denver Center
07:43PM 39.8803 -103.7786 85° East 418 481 23,000 2,100 Climbing Denver Center
07:44PM 39.8986 -103.6106 82° East 423 487 25,200 1,440 Climbing Denver Center
07:45PM 39.9181 -103.4414 81° East 466 536 26,000 900 Climbing Denver Center
07:46PM 39.9375 -103.2594 82° East 499 574 27,100 1,380 Climbing Denver Center
07:47PM 39.9586 -103.0742 81° East 511 588 28,900 1,500 Climbing Denver Center
07:48PM 39.9792 -102.8850 82° East 521 600 30,300 1,200 Climbing Denver Center
07:49PM 40.0003 -102.6917 82° East 532 612 31,500 1,260 Climbing Denver Center
07:50PM 40.0219 -102.4825 82° East 535 616 33,000 720 Climbing Denver Center
07:51PM 40.0400 -102.3056 82° East 518 596 33,000 240 Level Denver Center
07:52PM 40.0617 -102.0981 82° East 518 596 33,600 780 Climbing Denver Center
07:53PM 40.0797 -101.9186 82° East 522 601 34,700 1,080 Climbing Denver Center
07:54PM 40.1000 -101.7075 83° East 527 606 35,900 960 Climbing Denver Center
07:55PM 40.1186 -101.5225 82° East 537 618 36,700 480 Climbing Denver Center
07:56PM 40.1392 -101.3075 83° East 536 617 37,000 120 Climbing Denver Center
07:57PM 40.1572 -101.1242 83° East 535 616 37,000  Level Denver Center
07:58PM 40.1842 -100.9122 80° East 533 613 37,000  Level Denver Center
07:59PM 40.2203 -100.7325 75° East 537 618 37,000  Level Denver Center
08:00PM 40.2619 -100.5250 75° East 533 613 37,000  Level Denver Center
08:01PM 40.2967 -100.3442 76° East 537 618 37,000  Level Denver Center
08:02PM 40.3358 -100.1339 76° East 536 617 37,000  Level Denver Center
08:03PM 40.3706 -99.9478 76° East 548 631 37,000  Level Denver Center
08:04PM 40.4108 -99.7361 76° East 549 632 37,000  Level Denver Center
08:06PM 40.4472 -99.5419 76° East 550 633 37,000  Level Denver Center
08:07PM 40.4822 -99.3447 77° East 555 639 37,000  Level Denver Center
08:08PM 40.5189 -99.1486 76° East 556 640 37,000  Level Denver Center
08:09PM 40.5611 -98.9122 77° East 557 641 37,000  Level Denver Center
08:10PM 40.5953 -98.7153 77° East 557 641 37,000  Level Denver Center
08:11PM 40.6308 -98.5189 77° East 556 640 37,000  Level Denver Center
08:12PM 40.6711 -98.2822 77° East 557 641 37,000  Level Minneapolis Center
08:13PM 40.7053 -98.0836 77° East 559 643 37,000  Level Minneapolis Center
08:14PM 40.7450 -97.8433 78° East 561 646 37,000  Level Minneapolis Center
08:15PM 40.7797 -97.6439 77° East 560 644 37,000  Level Minneapolis Center
08:16PM 40.8122 -97.4408 78° East 564 649 37,000  Level Minneapolis Center
08:17PM 40.8431 -97.2511 78° East 563 648 37,000  Level Minneapolis Center
08:18PM 40.8764 -97.0489 78° East 564 649 37,000  Level Minneapolis Center
08:19PM 40.9142 -96.8075 78° East 561 646 37,000  Level Minneapolis Center
08:20PM 40.9450 -96.6044 79° East 565 650 37,000  Level Minneapolis Center
08:21PM 40.9719 -96.4017 80° East 564 649 37,000  Level Minneapolis Center
08:22PM 40.9989 -96.2022 80° East 560 644 37,000  Level Minneapolis Center
08:23PM 41.0250 -96.0036 80° East 556 640 37,000  Level Minneapolis Center
08:25PM 41.0564 -95.7658 80° East 554 638 37,000  Level Minneapolis Center
08:26PM 41.0869 -95.5256 80° East 557 641 37,000  Level Minneapolis Center
08:27PM 41.1136 -95.3222 80° East 562 647 37,000  Level Minneapolis Center
08:28PM 41.1389 -95.1192 81° East 562 647 37,000  Level Minneapolis Center
08:29PM 41.1628 -94.9167 81° East 560 644 37,000  Level Minneapolis Center
08:30PM 41.1922 -94.6733 81° East 558 642 37,000  Level Minneapolis Center
08:31PM 41.2167 -94.4689 81° East 560 644 37,000 180 Level Minneapolis Center
08:32PM 41.2408 -94.2647 81° East 560 644 37,400 480 Climbing Minneapolis Center
08:33PM 41.2619 -94.0689 82° East 562 647 38,000 720 Climbing Minneapolis Center
08:34PM 41.2864 -93.8625 81° East 566 651 38,900 480 Climbing Minneapolis Center
08:35PM 41.3158 -93.6169 81° East 564 649 39,000  Climbing Minneapolis Center
08:36PM 41.3419 -93.4153 80° East 558 642 39,000  Level Minneapolis Center
08:37PM 41.3650 -93.2144 81° East 554 638 39,000  Level Minneapolis Center
08:38PM 41.3914 -92.9761 82° East 546 628 39,000  Level Minneapolis Center
08:39PM 41.4133 -92.7781 82° East 544 626 39,000  Level Minneapolis Center
08:40PM 41.4308 -92.6175 82° East 543 625 39,000  Level Chicago Center
08:41PM 41.4519 -92.4186 82° East 544 626 39,000  Level Chicago Center
08:42PM 41.4753 -92.1997 82° East 542 624 39,000  Level Chicago Center
08:43PM 41.4947 -92.0031 82° East 542 624 39,000  Level Chicago Center
08:44PM 41.5158 -91.8078 82° East 539 620 39,000  Level Chicago Center
08:45PM 41.5350 -91.6106 83° East 541 623 39,000  Level Chicago Center
08:46PM 41.5547 -91.4150 82° East 539 620 39,000  Level Chicago Center
08:47PM 41.5769 -91.1806 83° East 539 620 39,000  Level Chicago Center
08:48PM 41.5969 -90.9836 82° East 541 623 39,000  Level Chicago Center
08:49PM 41.6136 -90.7897 83° East 536 617 39,000  Level Chicago Center
08:50PM 41.6308 -90.6019 83° East 535 616 39,000  Level Chicago Center
08:51PM 41.6525 -90.3625 83° East 538 619 39,000  Level Chicago Center
08:52PM 41.6689 -90.1661 84° East 531 611 39,000  Level Chicago Center
08:53PM 41.6875 -89.9675 83° East 534 615 39,000  Level Chicago Center
08:54PM 41.7028 -89.7681 84° East 536 617 39,000  Level Chicago Center
08:55PM 41.7192 -89.5697 84° East 534 615 39,000  Level Chicago Center
08:56PM 41.7367 -89.3517 84° East 534 615 39,000  Level Chicago Center
08:57PM 41.7519 -89.1553 84° East 531 611 39,000  Level Chicago Center
08:58PM 41.7653 -88.9606 85° East 529 609 39,000  Level Chicago Center
09:00PM 41.7808 -88.7639 84° East 530 610 39,000  Level Chicago Center
09:01PM 41.7953 -88.5692 84° East 528 608 39,000  Level Chicago Center
09:02PM 41.8119 -88.3333 85° East 531 611 39,000  Level Chicago Center
09:03PM 41.8256 -88.1372 85° East 528 608 39,000  Level Chicago Center
09:04PM 41.8381 -87.9417 85° East 526 605 39,000  Level Chicago Center
09:05PM 41.8517 -87.7458 85° East 526 605 39,000  Level Chicago Center
09:06PM 41.8633 -87.5497 85° East 527 606 39,000  Level Chicago Center
09:07PM 41.8750 -87.3547 85° East 525 604 39,000  Level Chicago Center
09:08PM 41.8867 -87.1614 85° East 522 601 39,000  Level Chicago Center
09:09PM 41.9008 -86.9303 85° East 520 598 39,000  Level Chicago Center
09:10PM 41.9108 -86.7389 86° East 516 594 39,000  Level Chicago Center
09:11PM 41.9211 -86.5603 86° East 514 592 39,000  Level Chicago Center
09:12PM 41.9331 -86.3678 85° East 517 595 39,000  Level Chicago Center
09:13PM 41.9444 -86.1375 86° East 516 594 39,000  Level Chicago Center
09:14PM 41.9542 -85.9458 86° East 515 593 39,000  Level Chicago Center
09:15PM 41.9642 -85.7539 86° East 514 592 39,000  Level Chicago Center
09:16PM 41.9722 -85.5586 87° East 518 596 39,000  Level Chicago Center
09:17PM 41.9817 -85.3611 86° East 524 603 39,000  Level Chicago Center
09:18PM 41.9897 -85.1631 87° East 525 604 39,000  Level Chicago Center
09:19PM 41.9986 -84.9583 87° East 519 597 39,000  Level Chicago Center
09:20PM 42.0061 -84.7664 87° East 518 596 39,000  Level Chicago Center
09:21PM 42.0131 -84.5856 87° East 512 589 39,000  Level Cleveland Center
09:22PM 42.0200 -84.3875 87° East 512 589 39,000  Level Cleveland Center
09:23PM 42.0244 -84.1836 88° East 512 589 39,000  Level Cleveland Center
09:24PM 42.0386 -83.9914 84° East 512 589 39,000  Level Cleveland Center
09:25PM 42.0586 -83.8050 82° East 512 589 39,000  Level Cleveland Center
09:26PM 42.0806 -83.6131 81° East 517 595 39,000  Level Cleveland Center
09:27PM 42.0994 -83.4406 82° East 523 602 39,000  Level Cleveland Center
09:28PM 42.1231 -83.2344 81° East 518 596 39,000  Level Cleveland Center
09:29PM 42.1417 -83.0614 82° East 518 596 39,000  Level Cleveland Center
09:30PM 42.1622 -82.8689 82° East 518 596 39,000  Level Cleveland Center
09:31PM 42.1825 -82.6792 82° East 518 596 39,000  Level Cleveland Center
09:32PM 42.2006 -82.4919 83° East 518 596 39,000  Level Cleveland Center
09:33PM 42.2200 -82.3047 82° East 513 590 39,000  Level Cleveland Center
09:34PM 42.2439 -82.0978 81° East 508 585 39,000  Level Cleveland Center
09:35PM 42.2608 -81.9103 83° East 503 579 39,000  Level Cleveland Center
09:36PM 42.2772 -81.7422 82° East 503 579 39,000  Level Cleveland Center
09:37PM 42.2956 -81.5544 82° East 503 579 39,000  Level Cleveland Center
09:38PM 42.3117 -81.3664 83° East 503 579 39,000  Level Cleveland Center
09:39PM 42.3294 -81.1758 83° East 503 579 39,000  Level Cleveland Center
09:40PM 42.3450 -80.9850 84° East 503 579 39,000  Level Cleveland Center
09:41PM 42.3619 -80.7742 84° East 503 579 39,000  Level Cleveland Center
09:42PM 42.3789 -80.5831 83° East 503 579 39,000  Level Cleveland Center
09:43PM 42.3975 -80.3975 82° East 508 585 39,000  Level Cleveland Center
09:44PM 42.4117 -80.2036 84° East 502 578 39,000  Level Cleveland Center
09:45PM 42.4256 -80.0122 84° East 502 578 39,000  Level Cleveland Center
09:46PM 42.4411 -79.8433 83° East 502 578 39,000  Level Cleveland Center
09:47PM 42.4544 -79.6489 85° East 502 578 39,000  Level Cleveland Center
09:48PM 42.4733 -79.4458 83° East 502 578 39,000  Level Cleveland Center
09:49PM 42.4858 -79.2542 85° East 502 578 39,000  Level Cleveland Center
09:50PM 42.4981 -79.0653 85° East 502 578 39,000  Level Cleveland Center
09:51PM 42.5122 -78.8733 84° East 502 578 39,000  Level Cleveland Center
09:52PM 42.5258 -78.6844 84° East 502 578 39,000  Level Cleveland Center
09:53PM 42.5372 -78.4922 85° East 502 578 39,000  Level Cleveland Center
09:54PM 42.5503 -78.3058 85° East 502 578 39,000  Level Cleveland Center
09:55PM 42.5611 -78.1222 85° East 502 578 39,000 -360 Level Cleveland Center
09:56PM 42.5717 -77.9386 85° East 497 572 38,300 -900 Descending Cleveland Center
09:57PM 42.5817 -77.7492 86° East 497 572 37,300 -660 Descending Cleveland Center
09:58PM 42.5956 -77.5539 84° East 503 579 37,000 -120 Descending Cleveland Center
10:01PM 42.6214 -77.1078 85° East 511 588 37,000  Level Boston Center
10:02PM 42.6292 -76.9164 87° East 511 588 37,000  Level Boston Center
10:03PM 42.6386 -76.7250 86° East 511 588 37,000 -360 Level Boston Center
10:04PM 42.6497 -76.5367 85° East 506 582 36,300 -900 Descending Boston Center
10:05PM 42.6583 -76.3450 86° East 506 582 35,300 -1,020 Descending Boston Center
10:06PM 42.6694 -76.1397 86° East 506 582 34,300 -960 Descending Boston Center
10:07PM 42.6753 -75.9564 87° East 495 570 33,300 -960 Descending Boston Center
10:08PM 42.6861 -75.7308 86° East 490 564 32,200 -1,080 Descending Boston Center
10:09PM 42.6917 -75.5364 88° East 500 575 31,200 -1,020 Descending Boston Center
10:10PM 42.7008 -75.3475 86° East 500 575 30,200 -1,020 Descending Boston Center
10:11PM 42.7053 -75.1667 88° East 494 568 29,200 -1,020 Descending Boston Center
10:12PM 42.7111 -75.0058 87° East 474 545 28,200 -1,020 Descending Boston Center
10:13PM 42.7169 -74.8336 87° East 462 532 27,200 -1,020 Descending Boston Center
10:14PM 42.7225 -74.6672 87° East 451 519 26,200 -1,020 Descending Boston Center
10:15PM 42.7278 -74.4978 88° East 444 511 25,200 -780 Descending Boston Center
10:16PM 42.7303 -74.3453 89° East 424 488 24,500 -840 Descending Boston Center
10:17PM 42.7375 -74.1531 87° East 419 482 23,400 -780 Descending Boston Center
10:18PM 42.7397 -74.0033 89° East 414 476 23,000 -540 Descending Boston Center
10:19PM 42.7458 -73.8508 87° East 409 471 22,400 -1,140 Descending Boston Center
10:20PM 42.7542 -73.6842 86° East 397 457 20,800 -1,560 Descending Boston Center
10:21PM 42.7578 -73.5344 88° East 397 457 19,300 -900 Descending Boston Center
10:22PM 42.7611 -73.3875 88° East 392 451 19,000 -180 Descending Boston Center
10:23PM 42.7664 -73.2461 87° East 377 434 19,000  Level Boston Center
10:24PM 42.7694 -73.1047 88° East 377 434 19,000  Level Boston Center
10:25PM 42.7764 -72.9775 86° East 377 434 19,000  Level Boston Center
10:26PM 42.7811 -72.8333 87° East 377 434 19,000 -60 Level Boston Center
10:27PM 42.7858 -72.6636 88° East 377 434 18,900 -900 Descending Boston Center
10:28PM 42.7900 -72.5222 88° East 377 434 17,200 -2,040 Descending Boston Center
10:29PM 42.7922 -72.3864 89° East 364 419 14,900 -2,220 Descending Boston Center
10:30PM 42.7961 -72.2619 88° East 364 419 12,800 -2,340 Descending Boston Center
10:31PM 42.8083 -72.1033 84° East 364 419 10,300 -1,500 Descending Boston Center
10:32PM 42.8164 -71.9817 85° East 346 398 9,800 -840 Descending Boston Center
10:33PM 42.8056 -71.8797 98° East 288 331 8,700 -1,200 Descending Boston Center
10:34PM 42.7964 -71.7722 97° East 282 325 7,500 -1,260 Descending Boston Center
10:35PM 42.7856 -71.6764 99° East 268 308 6,200 -1,380 Descending Boston Center
10:36PM 42.7786 -71.5886 96° East 262 302 4,800 -1,200 Descending Boston Center
10:37PM 42.7694 -71.4956 98° East 240 276 3,900 -780 Descending Boston Center
10:38PM 42.7419 -71.4364 122° Southeast 204 235 3,300 -720 Descending Boston Center
10:39PM 42.7331 -71.3631 99° East 182 209 2,500 -660 Descending Boston Center
10:40PM 42.7681 -71.3428 23° Northeast 138 159 2,000 -300 Descending Boston Center
10:41PM 42.8183 -71.3672 340° North 142 163 2,000 -60 Level Boston Center
10:42PM 42.8500 -71.3867 336° Northwest 142 163 1,900 -480 Descending Boston Center
10:43PM 42.8856 -71.4058 338° Northwest 131 151 1,100 -780 Descending Boston Center
10:44PM 42.9147 -71.4225 337° Northwest 126 145 400 8,940 Descending Boston Center
10:45PM 42.9483 -71.4472 332° Northwest 126 145 19,000 18,600 Climbing Boston Center